createdAt,value
2016-10-25T00:01:07.268Z,22.17
2016-10-25T00:02:18.279Z,22.14
2016-10-25T00:03:28.912Z,22.13
2016-10-25T00:04:39.490Z,22.04
2016-10-25T00:05:50.032Z,22.04
2016-10-25T00:07:00.585Z,22.02
2016-10-25T00:08:11.143Z,21.97
2016-10-25T00:09:21.795Z,21.85
2016-10-25T00:10:32.296Z,21.85
2016-10-25T00:11:42.873Z,21.72
2016-10-25T00:12:53.486Z,21.5
2016-10-25T00:14:04.001Z,21.46
2016-10-25T00:15:14.515Z,21.48
2016-10-25T00:16:25.067Z,21.3
2016-10-25T00:17:35.614Z,21.16
2016-10-25T00:18:46.150Z,21.06
2016-10-25T00:19:56.725Z,21.06
2016-10-25T00:21:07.266Z,21.11
2016-10-25T00:22:17.802Z,21.09
2016-10-25T00:23:28.305Z,20.99
2016-10-25T00:24:39.335Z,21.02
2016-10-25T00:25:50.348Z,21.09
2016-10-25T00:27:00.966Z,21.11
2016-10-25T00:28:11.512Z,21.09
2016-10-25T00:29:22.032Z,21.09
2016-10-25T00:30:32.584Z,21.05
2016-10-25T00:31:43.160Z,21.2
2016-10-25T00:32:53.844Z,21.04
2016-10-25T00:34:04.374Z,21.16
2016-10-25T00:35:14.904Z,21.04
2016-10-25T00:36:25.422Z,21.08
2016-10-25T00:37:36.459Z,21.08
2016-10-25T00:38:47.010Z,21.01
2016-10-25T00:39:57.506Z,21.05
2016-10-25T00:41:08.024Z,21.06
2016-10-25T00:42:18.571Z,21.05
2016-10-25T00:43:29.140Z,21.06
2016-10-25T00:44:39.661Z,20.98
2016-10-25T00:45:50.217Z,20.96
2016-10-25T00:47:00.760Z,20.91
2016-10-25T00:48:11.278Z,20.95
2016-10-25T00:49:21.815Z,21.01
2016-10-25T00:50:32.904Z,21.01
2016-10-25T00:51:43.426Z,21.04
2016-10-25T00:52:53.904Z,21.01
2016-10-25T00:54:04.423Z,20.98
2016-10-25T00:55:14.916Z,20.93
2016-10-25T00:56:25.529Z,21.01
2016-10-25T00:57:36.085Z,21.06
2016-10-25T00:58:46.629Z,21.01
2016-10-25T00:59:57.174Z,21.05
2016-10-25T01:01:07.715Z,21.02
2016-10-25T01:02:18.266Z,21.11
2016-10-25T01:03:28.750Z,21.14
2016-10-25T01:04:39.303Z,21.06
2016-10-25T01:05:49.859Z,21.16
2016-10-25T01:07:00.381Z,21.09
2016-10-25T01:08:10.901Z,21.09
2016-10-25T01:09:21.399Z,21.04
2016-10-25T01:10:31.923Z,21.06
2016-10-25T01:11:42.379Z,21.09
2016-10-25T01:12:52.877Z,21.11
2016-10-25T01:14:03.459Z,21.11
2016-10-25T01:15:13.944Z,21.09
2016-10-25T01:16:24.469Z,21.09
2016-10-25T01:17:35.006Z,21.01
2016-10-25T01:18:45.473Z,21.08
2016-10-25T01:19:56.029Z,20.98
2016-10-25T01:21:06.551Z,20.95
2016-10-25T01:22:17.039Z,20.9
2016-10-25T01:23:27.557Z,20.91
2016-10-25T01:24:38.054Z,20.98
2016-10-25T01:25:48.549Z,21.06
2016-10-25T01:26:59.152Z,20.99
2016-10-25T01:28:09.754Z,21.04
2016-10-25T01:29:20.356Z,21.02
2016-10-25T01:30:30.991Z,20.93
2016-10-25T01:31:41.674Z,20.93
2016-10-25T01:32:52.288Z,20.99
2016-10-25T01:34:02.853Z,20.96
2016-10-25T01:35:13.412Z,20.98
2016-10-25T01:36:23.918Z,20.9
2016-10-25T01:37:34.527Z,20.98
2016-10-25T01:38:44.976Z,20.87
2016-10-25T01:39:55.477Z,20.9
2016-10-25T01:41:06.035Z,20.93
2016-10-25T01:42:16.620Z,20.83
2016-10-25T01:43:27.285Z,20.9
2016-10-25T01:44:37.832Z,20.91
2016-10-25T01:45:48.375Z,20.86
2016-10-25T01:46:58.948Z,20.81
2016-10-25T01:48:09.506Z,20.79
2016-10-25T01:49:20.059Z,20.79
2016-10-25T01:50:30.582Z,20.79
2016-10-25T01:51:41.123Z,20.95
2016-10-25T01:52:51.691Z,20.89
2016-10-25T01:54:02.258Z,20.93
2016-10-25T01:55:12.750Z,20.93
2016-10-25T01:56:23.299Z,20.93
2016-10-25T01:57:33.835Z,20.95
2016-10-25T01:58:44.375Z,20.83
2016-10-25T01:59:54.899Z,20.9
2016-10-25T02:01:05.999Z,20.9
2016-10-25T02:02:16.532Z,20.9
2016-10-25T02:03:27.077Z,20.95
2016-10-25T02:04:37.643Z,20.84
2016-10-25T02:05:48.197Z,20.8
2016-10-25T02:06:58.810Z,20.72
2016-10-25T02:08:09.342Z,20.83
2016-10-25T02:09:19.920Z,20.8
2016-10-25T02:10:30.988Z,20.83
2016-10-25T02:11:41.553Z,20.81
2016-10-25T02:12:52.077Z,20.83
2016-10-25T02:14:02.617Z,20.8
2016-10-25T02:15:13.195Z,20.81
2016-10-25T02:16:23.767Z,20.81
2016-10-25T02:17:34.830Z,20.71
2016-10-25T02:18:45.403Z,20.66
2016-10-25T02:19:55.978Z,20.71
2016-10-25T02:21:26.257Z,20.71
2016-10-25T02:22:37.326Z,20.69
2016-10-25T02:23:47.989Z,20.72
2016-10-25T02:24:58.566Z,20.66
2016-10-25T02:26:09.140Z,20.71
2016-10-25T02:27:19.718Z,20.71
2016-10-25T02:28:30.295Z,20.71
2016-10-25T02:29:40.968Z,20.69
2016-10-25T02:30:51.540Z,20.68
2016-10-25T02:32:02.114Z,20.65
2016-10-25T02:33:12.689Z,20.68
2016-10-25T02:34:23.259Z,20.64
2016-10-25T02:35:34.328Z,20.64
2016-10-25T02:36:44.944Z,20.61
2016-10-25T02:37:55.512Z,20.58
2016-10-25T02:39:06.100Z,20.65
2016-10-25T02:40:16.708Z,20.69
2016-10-25T02:41:27.279Z,20.65
2016-10-25T02:42:37.858Z,20.68
2016-10-25T02:43:48.441Z,20.71
2016-10-25T02:44:59.008Z,20.69
2016-10-25T02:46:09.580Z,20.68
2016-10-25T02:47:20.250Z,20.68
2016-10-25T02:48:30.829Z,20.65
2016-10-25T02:49:41.411Z,20.72
2016-10-25T02:50:51.979Z,20.72
2016-10-25T02:52:02.562Z,20.71
2016-10-25T02:53:13.259Z,20.62
2016-10-25T02:54:23.841Z,20.68
2016-10-25T02:55:34.413Z,20.68
2016-10-25T02:56:45.002Z,20.64
2016-10-25T02:57:55.586Z,20.54
2016-10-25T02:59:06.156Z,20.56
2016-10-25T03:00:16.721Z,20.58
2016-10-25T03:01:27.293Z,20.61
2016-10-25T03:02:37.886Z,20.65
2016-10-25T03:03:48.482Z,20.68
2016-10-25T03:04:59.073Z,20.59
2016-10-25T03:06:09.653Z,20.69
2016-10-25T03:07:20.240Z,20.62
2016-10-25T03:08:30.782Z,20.61
2016-10-25T03:09:41.275Z,20.51
2016-10-25T03:10:51.990Z,20.56
2016-10-25T03:12:02.551Z,20.56
2016-10-25T03:13:13.025Z,20.56
2016-10-25T03:14:23.564Z,20.68
2016-10-25T03:15:34.131Z,20.65
2016-10-25T03:16:44.647Z,20.72
2016-10-25T03:17:55.149Z,20.71
2016-10-25T03:19:05.712Z,20.69
2016-10-25T03:20:16.262Z,20.64
2016-10-25T03:21:26.802Z,20.66
2016-10-25T03:22:37.365Z,20.68
2016-10-25T03:23:47.939Z,20.69
2016-10-25T03:24:58.436Z,20.65
2016-10-25T03:26:09.001Z,20.69
2016-10-25T03:27:19.517Z,20.72
2016-10-25T03:28:30.194Z,20.61
2016-10-25T03:29:40.733Z,20.54
2016-10-25T03:30:51.785Z,20.59
2016-10-25T03:32:02.344Z,20.64
2016-10-25T03:33:12.873Z,20.56
2016-10-25T03:34:23.391Z,20.5
2016-10-25T03:35:34.394Z,20.56
2016-10-25T03:36:44.946Z,20.51
2016-10-25T03:37:55.469Z,20.53
2016-10-25T03:39:06.058Z,20.51
2016-10-25T03:40:16.801Z,20.51
2016-10-25T03:41:27.359Z,20.42
2016-10-25T03:42:37.869Z,20.43
2016-10-25T03:43:48.387Z,20.46
2016-10-25T03:44:58.904Z,20.43
2016-10-25T03:46:09.504Z,20.42
2016-10-25T03:47:19.998Z,20.46
2016-10-25T03:48:30.554Z,20.47
2016-10-25T03:49:41.087Z,20.41
2016-10-25T03:50:51.606Z,20.42
2016-10-25T03:52:02.123Z,20.42
2016-10-25T03:53:12.629Z,20.43
2016-10-25T03:54:23.107Z,20.49
2016-10-25T03:55:33.665Z,20.49
2016-10-25T03:56:44.187Z,20.43
2016-10-25T03:57:54.945Z,20.42
2016-10-25T03:59:05.438Z,20.43
2016-10-25T04:00:15.917Z,20.43
2016-10-25T04:01:26.503Z,20.47
2016-10-25T04:02:36.986Z,20.43
2016-10-25T04:03:47.571Z,20.53
2016-10-25T04:04:58.144Z,20.42
2016-10-25T04:06:08.675Z,20.39
2016-10-25T04:07:19.221Z,20.33
2016-10-25T04:08:30.283Z,20.49
2016-10-25T04:09:40.942Z,20.46
2016-10-25T04:10:51.488Z,20.31
2016-10-25T04:12:02.057Z,20.42
2016-10-25T04:13:12.627Z,20.46
2016-10-25T04:14:23.155Z,20.35
2016-10-25T04:15:33.847Z,20.24
2016-10-25T04:16:44.467Z,20.24
2016-10-25T04:17:55.042Z,20.27
2016-10-25T04:19:06.056Z,20.23
2016-10-25T04:20:16.562Z,20.13
2016-10-25T04:21:27.098Z,20.06
2016-10-25T04:22:37.636Z,20.2
2016-10-25T04:23:48.227Z,20.15
2016-10-25T04:24:58.758Z,20.18
2016-10-25T04:26:09.325Z,20.13
2016-10-25T04:27:20.027Z,20.12
2016-10-25T04:28:30.576Z,20.13
2016-10-25T04:29:41.111Z,20.12
2016-10-25T04:30:51.658Z,20.15
2016-10-25T04:32:02.736Z,20.15
2016-10-25T04:33:13.408Z,20.28
2016-10-25T04:34:23.943Z,20.28
2016-10-25T04:35:34.479Z,20.23
2016-10-25T04:36:45.009Z,20.27
2016-10-25T04:37:55.556Z,20.24
2016-10-25T04:39:06.276Z,20.3
2016-10-25T04:40:16.797Z,20.27
2016-10-25T04:41:27.849Z,20.23
2016-10-25T04:42:38.392Z,20.23
2016-10-25T04:43:48.879Z,20.24
2016-10-25T04:44:59.403Z,20.28
2016-10-25T04:46:09.940Z,20.24
2016-10-25T04:47:20.443Z,20.24
2016-10-25T04:48:30.993Z,20.27
2016-10-25T04:49:41.513Z,20.1
2016-10-25T04:50:52.365Z,20.12
2016-10-25T04:52:02.845Z,20.16
2016-10-25T04:53:13.349Z,20.15
2016-10-25T04:54:23.858Z,20.13
2016-10-25T04:55:34.376Z,20.12
2016-10-25T04:56:44.906Z,20.08
2016-10-25T04:57:55.469Z,20.12
2016-10-25T04:59:05.972Z,20.15
2016-10-25T05:00:17.024Z,20.09
2016-10-25T05:01:27.527Z,20.15
2016-10-25T05:02:38.055Z,20.1
2016-10-25T05:03:49.102Z,20.15
2016-10-25T05:04:59.610Z,20.15
2016-10-25T05:06:10.166Z,20.03
2016-10-25T05:07:20.688Z,20.16
2016-10-25T05:08:31.331Z,20.13
2016-10-25T05:09:41.898Z,19.98
2016-10-25T05:10:52.469Z,20.02
2016-10-25T05:12:03.016Z,20.06
2016-10-25T05:13:13.591Z,20.02
2016-10-25T05:14:24.178Z,20.06
2016-10-25T05:15:34.715Z,19.98
2016-10-25T05:16:45.237Z,20.1
2016-10-25T05:17:55.785Z,20.08
2016-10-25T05:21:00.763Z,20.08
2016-10-25T05:22:11.297Z,20.03
2016-10-25T05:23:21.850Z,20.1
2016-10-25T05:24:32.439Z,20.06
2016-10-25T05:25:42.951Z,20.08
2016-10-25T05:26:53.581Z,20.05
2016-10-25T05:28:04.124Z,20.06
2016-10-25T05:29:15.138Z,20.05
2016-10-25T05:30:25.666Z,19.98
2016-10-25T05:31:36.232Z,20.02
2016-10-25T05:32:46.869Z,20.02
2016-10-25T05:33:57.360Z,19.98
2016-10-25T05:35:07.878Z,20
2016-10-25T05:36:18.398Z,20.12
2016-10-25T05:37:28.912Z,20.03
2016-10-25T05:38:39.480Z,20.12
2016-10-25T05:39:50.092Z,19.98
2016-10-25T05:41:00.613Z,20.13
2016-10-25T05:42:11.185Z,20
2016-10-25T05:43:21.725Z,20.05
2016-10-25T05:44:32.245Z,20.09
2016-10-25T05:45:42.802Z,19.93
2016-10-25T05:46:53.313Z,19.94
2016-10-25T05:48:03.842Z,19.9
2016-10-25T05:49:14.385Z,19.83
2016-10-25T05:50:24.994Z,19.97
2016-10-25T05:51:35.468Z,19.91
2016-10-25T05:52:45.967Z,19.91
2016-10-25T05:53:56.495Z,19.86
2016-10-25T05:55:07.112Z,19.88
2016-10-25T05:56:17.666Z,19.83
2016-10-25T05:57:28.163Z,19.88
2016-10-25T05:58:38.683Z,19.86
2016-10-25T05:59:49.194Z,19.9
2016-10-25T06:00:59.712Z,19.9
2016-10-25T06:02:10.282Z,19.9
2016-10-25T06:03:20.860Z,19.83
2016-10-25T06:04:31.410Z,19.79
2016-10-25T06:05:41.956Z,19.91
2016-10-25T06:06:52.485Z,19.8
2016-10-25T06:08:03.076Z,19.9
2016-10-25T06:09:13.536Z,19.78
2016-10-25T06:10:23.998Z,19.8
2016-10-25T06:11:34.457Z,19.83
2016-10-25T06:12:44.902Z,19.86
2016-10-25T06:13:55.472Z,19.83
2016-10-25T06:15:05.928Z,19.83
2016-10-25T06:16:16.399Z,19.83
2016-10-25T06:17:26.860Z,19.84
2016-10-25T06:18:37.308Z,19.86
2016-10-25T06:19:47.766Z,19.79
2016-10-25T06:20:58.223Z,19.76
2016-10-25T06:22:08.714Z,19.88
2016-10-25T06:23:19.171Z,19.86
2016-10-25T06:24:29.625Z,19.91
2016-10-25T06:25:40.083Z,19.91
2016-10-25T06:26:50.540Z,19.97
2016-10-25T06:28:01.021Z,19.84
2016-10-25T06:29:11.469Z,19.95
2016-10-25T06:30:22.409Z,19.9
2016-10-25T06:31:32.993Z,19.91
2016-10-25T06:32:43.452Z,19.8
2016-10-25T06:33:53.920Z,19.91
2016-10-25T06:35:04.374Z,19.94
2016-10-25T06:36:14.835Z,19.87
2016-10-25T06:37:25.393Z,19.83
2016-10-25T06:38:35.895Z,19.83
2016-10-25T06:39:46.399Z,19.84
2016-10-25T06:40:57.376Z,19.83
2016-10-25T06:42:07.893Z,19.8
2016-10-25T06:43:18.377Z,19.78
2016-10-25T06:44:28.885Z,19.73
2016-10-25T06:45:39.389Z,19.87
2016-10-25T06:46:50.335Z,19.87
2016-10-25T06:48:00.827Z,19.73
2016-10-25T06:49:11.354Z,19.86
2016-10-25T06:50:21.818Z,19.87
2016-10-25T06:51:32.330Z,19.76
2016-10-25T06:52:42.827Z,19.84
2016-10-25T06:53:53.807Z,19.79
2016-10-25T06:55:04.405Z,19.86
2016-10-25T06:56:14.919Z,19.78
2016-10-25T06:57:25.464Z,19.83
2016-10-25T06:58:36.409Z,19.78
2016-10-25T06:59:46.861Z,19.88
2016-10-25T07:00:57.435Z,19.88
2016-10-25T07:02:07.941Z,19.87
2016-10-25T07:03:18.416Z,19.9
2016-10-25T07:04:28.864Z,19.9
2016-10-25T07:05:39.419Z,19.88
2016-10-25T07:06:49.875Z,19.91
2016-10-25T07:08:00.370Z,19.93
2016-10-25T07:09:11.317Z,19.86
2016-10-25T07:10:21.807Z,19.91
2016-10-25T07:11:32.802Z,19.91
2016-10-25T07:12:43.854Z,19.9
2016-10-25T07:13:54.831Z,19.78
2016-10-25T07:15:05.344Z,19.78
2016-10-25T07:16:15.812Z,19.84
2016-10-25T07:17:26.346Z,19.86
2016-10-25T07:18:36.984Z,19.83
2016-10-25T07:19:47.461Z,19.84
2016-10-25T07:20:57.926Z,19.84
2016-10-25T07:22:08.424Z,19.8
2016-10-25T07:23:18.893Z,19.8
2016-10-25T07:24:29.479Z,19.73
2016-10-25T07:25:39.999Z,19.79
2016-10-25T07:26:50.555Z,19.76
2016-10-25T07:28:01.055Z,19.79
2016-10-25T07:29:11.573Z,19.83
2016-10-25T07:30:22.088Z,19.87
2016-10-25T07:31:32.588Z,19.79
2016-10-25T07:32:43.102Z,19.73
2016-10-25T07:33:53.641Z,19.83
2016-10-25T07:35:04.154Z,19.79
2016-10-25T07:36:14.675Z,19.83
2016-10-25T07:37:25.163Z,19.63
2016-10-25T07:38:35.635Z,19.65
2016-10-25T07:39:46.106Z,19.69
2016-10-25T07:40:56.607Z,19.69
2016-10-25T07:42:07.186Z,19.7
2016-10-25T07:43:17.693Z,19.73
2016-10-25T07:44:28.172Z,19.66
2016-10-25T07:45:38.704Z,19.65
2016-10-25T07:46:49.173Z,19.58
2016-10-25T07:47:59.807Z,19.61
2016-10-25T07:49:10.332Z,19.73
2016-10-25T07:50:20.915Z,19.7
2016-10-25T07:51:31.458Z,19.63
2016-10-25T07:52:42.007Z,19.68
2016-10-25T07:53:52.513Z,19.61
2016-10-25T07:55:03.090Z,19.68
2016-10-25T07:56:13.620Z,19.6
2016-10-25T07:57:24.140Z,19.55
2016-10-25T07:58:34.732Z,19.63
2016-10-25T07:59:45.309Z,19.63
2016-10-25T08:00:55.837Z,19.63
2016-10-25T08:02:06.316Z,19.65
2016-10-25T08:03:16.813Z,19.53
2016-10-25T08:04:27.328Z,19.57
2016-10-25T08:05:37.967Z,19.54
2016-10-25T08:06:48.495Z,19.61
2016-10-25T08:07:59.049Z,19.65
2016-10-25T08:09:09.598Z,19.57
2016-10-25T08:10:20.127Z,19.58
2016-10-25T08:11:31.237Z,19.58
2016-10-25T08:12:41.788Z,19.6
2016-10-25T08:13:52.331Z,19.58
2016-10-25T08:15:02.896Z,19.55
2016-10-25T08:16:13.472Z,19.57
2016-10-25T08:17:24.035Z,19.38
2016-10-25T08:18:35.085Z,19.43
2016-10-25T08:19:45.613Z,19.46
2016-10-25T08:20:56.140Z,19.42
2016-10-25T08:22:06.736Z,19.43
2016-10-25T08:23:17.317Z,19.48
2016-10-25T08:24:27.888Z,19.48
2016-10-25T08:25:38.461Z,19.46
2016-10-25T08:26:49.072Z,19.42
2016-10-25T08:27:59.654Z,19.5
2016-10-25T08:29:10.337Z,19.4
2016-10-25T08:30:20.916Z,19.43
2016-10-25T08:31:31.492Z,19.48
2016-10-25T08:32:43.051Z,19.55
2016-10-25T08:33:53.622Z,19.55
2016-10-25T08:35:04.342Z,19.57
2016-10-25T08:36:14.922Z,19.51
2016-10-25T08:37:25.500Z,19.54
2016-10-25T08:38:36.102Z,19.53
2016-10-25T08:39:46.674Z,19.54
2016-10-25T08:40:57.241Z,19.58
2016-10-25T08:42:07.851Z,19.53
2016-10-25T08:43:18.437Z,19.58
2016-10-25T08:44:29.010Z,19.61
2016-10-25T08:45:39.576Z,19.63
2016-10-25T08:46:50.152Z,19.61
2016-10-25T08:48:01.217Z,19.66
2016-10-25T08:49:11.786Z,19.68
2016-10-25T08:50:22.347Z,19.7
2016-10-25T08:51:32.919Z,19.69
2016-10-25T08:52:44.148Z,19.66
2016-10-25T08:53:54.729Z,19.7
2016-10-25T08:55:05.311Z,19.69
2016-10-25T08:56:15.884Z,19.7
2016-10-25T08:57:26.457Z,19.7
2016-10-25T08:58:37.121Z,19.63
2016-10-25T08:59:47.683Z,19.66
2016-10-25T09:00:58.255Z,19.66
2016-10-25T09:02:08.827Z,19.68
2016-10-25T09:03:19.404Z,19.65
2016-10-25T09:04:29.980Z,19.66
2016-10-25T09:05:40.559Z,19.57
2016-10-25T09:06:51.129Z,19.65
2016-10-25T09:08:01.699Z,19.68
2016-10-25T09:09:12.279Z,19.68
2016-10-25T09:10:22.962Z,19.7
2016-10-25T09:11:33.538Z,19.69
2016-10-25T09:12:44.109Z,19.69
2016-10-25T09:13:54.701Z,19.68
2016-10-25T09:15:05.315Z,19.47
2016-10-25T09:16:15.991Z,19.55
2016-10-25T09:17:27.065Z,19.57
2016-10-25T09:18:37.638Z,19.6
2016-10-25T09:19:48.207Z,19.65
2016-10-25T09:20:58.774Z,19.68
2016-10-25T09:22:09.349Z,19.66
2016-10-25T09:23:20.414Z,19.75
2016-10-25T09:24:30.991Z,19.65
2016-10-25T09:25:41.569Z,19.65
2016-10-25T09:26:52.138Z,19.73
2016-10-25T09:28:02.823Z,19.73
2016-10-25T09:29:13.414Z,19.79
2016-10-25T09:30:24.001Z,19.75
2016-10-25T09:31:34.566Z,19.68
2016-10-25T09:32:45.177Z,19.72
2016-10-25T09:33:55.859Z,19.73
2016-10-25T09:35:06.429Z,19.65
2016-10-25T09:36:17.001Z,19.7
2016-10-25T09:37:27.582Z,19.8
2016-10-25T09:38:38.169Z,19.9
2016-10-25T09:39:48.736Z,19.68
2016-10-25T09:40:59.308Z,19.72
2016-10-25T09:42:09.879Z,19.66
2016-10-25T09:43:20.459Z,19.78
2016-10-25T09:44:31.029Z,19.72
2016-10-25T09:45:41.727Z,19.72
2016-10-25T09:46:52.302Z,19.83
2016-10-25T09:48:02.877Z,19.78
2016-10-25T09:49:13.507Z,19.79
2016-10-25T09:50:24.088Z,19.86
2016-10-25T09:51:34.747Z,19.9
2016-10-25T09:52:45.324Z,19.84
2016-10-25T09:53:55.895Z,19.84
2016-10-25T09:55:06.469Z,19.84
2016-10-25T09:56:17.053Z,19.84
2016-10-25T09:57:27.622Z,19.86
2016-10-25T09:58:38.198Z,19.86
2016-10-25T09:59:48.818Z,19.88
2016-10-25T10:00:59.347Z,19.9
2016-10-25T10:02:09.865Z,19.87
2016-10-25T10:03:20.480Z,19.87
2016-10-25T10:04:30.998Z,19.9
2016-10-25T10:05:41.466Z,19.95
2016-10-25T10:06:51.999Z,19.87
2016-10-25T10:08:02.586Z,19.87
2016-10-25T10:09:13.297Z,19.91
2016-10-25T10:10:23.795Z,19.98
2016-10-25T10:11:34.276Z,19.93
2016-10-25T10:12:44.726Z,19.93
2016-10-25T10:13:55.217Z,19.98
2016-10-25T10:15:05.683Z,19.94
2016-10-25T10:16:16.176Z,20.02
2016-10-25T10:17:26.659Z,19.98
2016-10-25T10:18:37.164Z,20.06
2016-10-25T10:19:47.665Z,20.13
2016-10-25T10:20:58.278Z,20.05
2016-10-25T10:22:08.733Z,20.02
2016-10-25T10:23:19.270Z,20.16
2016-10-25T10:24:29.747Z,20.2
2016-10-25T10:25:40.264Z,20.23
2016-10-25T10:26:50.883Z,20.28
2016-10-25T10:28:01.339Z,20.33
2016-10-25T10:29:11.821Z,20.54
2016-10-25T10:30:22.311Z,20.5
2016-10-25T10:31:32.794Z,20.62
2016-10-25T10:32:43.410Z,20.68
2016-10-25T10:33:53.955Z,20.68
2016-10-25T10:35:04.477Z,20.77
2016-10-25T10:36:14.958Z,20.74
2016-10-25T10:37:25.461Z,20.86
2016-10-25T10:38:36.037Z,20.83
2016-10-25T10:39:46.553Z,20.84
2016-10-25T10:40:57.076Z,20.96
2016-10-25T10:42:07.596Z,21.01
2016-10-25T10:43:18.112Z,20.96
2016-10-25T10:44:28.644Z,21.09
2016-10-25T10:45:39.161Z,21.16
2016-10-25T10:46:49.672Z,21.05
2016-10-25T10:48:00.165Z,21.16
2016-10-25T10:49:10.712Z,21.32
2016-10-25T10:50:21.392Z,21.36
2016-10-25T10:51:31.881Z,21.39
2016-10-25T10:52:42.397Z,21.5
2016-10-25T10:53:53.407Z,21.46
2016-10-25T10:55:03.923Z,21.34
2016-10-25T10:56:14.432Z,21.3
2016-10-25T10:57:24.936Z,21.17
2016-10-25T10:58:35.413Z,21.23
2016-10-25T10:59:45.955Z,21.23
2016-10-25T11:00:56.489Z,21.16
2016-10-25T11:02:07.100Z,21.13
2016-10-25T11:03:17.653Z,21.06
2016-10-25T11:04:28.116Z,21.11
2016-10-25T11:05:38.627Z,21.08
2016-10-25T11:06:49.162Z,21.08
2016-10-25T11:07:59.788Z,21.11
2016-10-25T11:09:10.295Z,21.11
2016-10-25T11:10:20.816Z,21.04
2016-10-25T11:11:31.401Z,21.06
2016-10-25T11:12:41.956Z,21.06
2016-10-25T11:13:53.089Z,21.09
2016-10-25T11:15:03.594Z,21.06
2016-10-25T11:16:14.621Z,21.09
2016-10-25T11:17:25.233Z,21.19
2016-10-25T11:18:35.742Z,21.09
2016-10-25T11:19:46.220Z,20.95
2016-10-25T11:20:56.735Z,20.95
2016-10-25T11:22:07.230Z,20.98
2016-10-25T11:23:17.767Z,20.96
2016-10-25T11:24:28.345Z,20.93
2016-10-25T11:25:38.998Z,20.96
2016-10-25T11:26:49.504Z,20.95
2016-10-25T11:28:00.066Z,20.99
2016-10-25T11:29:10.643Z,20.9
2016-10-25T11:30:21.173Z,20.91
2016-10-25T11:31:31.785Z,21.04
2016-10-25T11:32:42.358Z,21.02
2016-10-25T11:33:52.938Z,21.08
2016-10-25T11:35:03.453Z,21.13
2016-10-25T11:36:14.026Z,21.17
2016-10-25T11:37:24.682Z,21.14
2016-10-25T11:38:35.210Z,21.08
2016-10-25T11:39:45.709Z,21.14
2016-10-25T11:40:56.709Z,21.17
2016-10-25T11:42:07.172Z,21.01
2016-10-25T11:43:17.716Z,21.13
2016-10-25T11:44:28.302Z,20.99
2016-10-25T11:45:38.834Z,21.11
2016-10-25T11:46:49.360Z,21.13
2016-10-25T11:47:59.870Z,21.11
2016-10-25T11:49:10.546Z,21.16
2016-10-25T11:50:21.161Z,21.06
2016-10-25T11:51:32.632Z,21.16
2016-10-25T11:52:43.141Z,21.13
2016-10-25T11:53:53.676Z,21.16
2016-10-25T11:55:04.240Z,21.29
2016-10-25T11:56:14.787Z,21.29
2016-10-25T11:57:25.332Z,21.36
2016-10-25T11:58:35.855Z,21.41
2016-10-25T11:59:46.402Z,21.5
2016-10-25T12:00:57.069Z,21.5
2016-10-25T12:02:07.653Z,21.56
2016-10-25T12:03:18.222Z,21.56
2016-10-25T12:04:28.728Z,21.59
2016-10-25T12:05:39.270Z,21.53
2016-10-25T12:06:49.877Z,21.45
2016-10-25T12:08:00.425Z,21.53
2016-10-25T12:09:10.950Z,21.54
2016-10-25T12:10:21.510Z,21.63
2016-10-25T12:11:32.048Z,21.78
2016-10-25T12:12:43.027Z,21.76
2016-10-25T12:13:53.599Z,21.81
2016-10-25T12:15:04.119Z,21.82
2016-10-25T12:16:14.666Z,21.85
2016-10-25T12:17:25.191Z,21.81
2016-10-25T12:18:35.828Z,21.91
2016-10-25T12:19:46.385Z,21.78
2016-10-25T12:20:56.974Z,21.78
2016-10-25T12:22:07.530Z,21.79
2016-10-25T12:23:18.068Z,21.67
2016-10-25T12:24:28.688Z,21.83
2016-10-25T12:25:39.231Z,21.71
2016-10-25T12:26:49.775Z,21.64
2016-10-25T12:28:00.322Z,21.66
2016-10-25T12:29:11.322Z,21.75
2016-10-25T12:30:21.921Z,21.76
2016-10-25T12:31:32.453Z,21.79
2016-10-25T12:32:42.972Z,21.81
2016-10-25T12:33:53.539Z,21.82
2016-10-25T12:35:04.075Z,21.85
2016-10-25T12:36:15.186Z,21.76
2016-10-25T12:37:26.182Z,21.78
2016-10-25T12:38:36.758Z,21.82
2016-10-25T12:39:47.315Z,21.72
2016-10-25T12:40:57.827Z,21.59
2016-10-25T12:42:08.360Z,21.53
2016-10-25T12:43:18.902Z,21.54
2016-10-25T12:44:29.456Z,21.57
2016-10-25T12:45:39.979Z,21.6
2016-10-25T12:46:50.483Z,21.64
2016-10-25T12:48:01.102Z,21.57
2016-10-25T12:49:11.633Z,21.57
2016-10-25T12:50:22.132Z,21.48
2016-10-25T12:51:32.657Z,21.46
2016-10-25T12:52:43.166Z,21.42
2016-10-25T12:53:53.786Z,21.44
2016-10-25T12:55:04.368Z,21.38
2016-10-25T12:56:14.909Z,21.38
2016-10-25T12:57:25.474Z,21.24
2016-10-25T12:58:35.959Z,21.24
2016-10-25T12:59:46.587Z,21.29
2016-10-25T13:00:57.110Z,21.3
2016-10-25T13:02:07.632Z,21.26
2016-10-25T13:03:18.194Z,21.29
2016-10-25T13:04:28.683Z,21.06
2016-10-25T13:05:39.234Z,21.04
2016-10-25T13:06:49.777Z,20.93
2016-10-25T13:08:00.312Z,20.95
2016-10-25T13:09:10.875Z,20.89
2016-10-25T13:10:21.389Z,20.83
2016-10-25T13:11:32.039Z,20.98
2016-10-25T13:12:42.567Z,20.95
2016-10-25T13:13:53.101Z,20.93
2016-10-25T13:15:03.696Z,20.99
2016-10-25T13:16:14.280Z,20.96
2016-10-25T13:17:24.905Z,21.11
2016-10-25T13:18:35.418Z,21.05
2016-10-25T13:19:45.937Z,21.04
2016-10-25T13:20:56.495Z,21.08
2016-10-25T13:22:07.073Z,20.99
2016-10-25T13:23:17.650Z,21.08
2016-10-25T13:24:28.776Z,21.19
2016-10-25T13:25:39.843Z,21.09
2016-10-25T13:26:50.429Z,21.13
2016-10-25T13:28:01.006Z,21.13
2016-10-25T13:29:11.680Z,21.14
2016-10-25T13:30:22.763Z,21.2
2016-10-25T13:31:33.831Z,21.35
2016-10-25T13:32:44.417Z,21.35
2016-10-25T13:33:55.004Z,21.27
2016-10-25T13:35:05.635Z,21.42
2016-10-25T13:36:16.221Z,21.38
2016-10-25T13:37:26.804Z,21.45
2016-10-25T13:38:37.387Z,21.46
2016-10-25T13:39:48.009Z,21.57
2016-10-25T13:40:58.731Z,21.6
2016-10-25T13:42:09.316Z,21.61
2016-10-25T13:43:19.888Z,21.5
2016-10-25T13:44:30.474Z,21.46
2016-10-25T13:45:41.048Z,21.53
2016-10-25T13:46:51.729Z,21.45
2016-10-25T13:48:02.305Z,21.44
2016-10-25T13:49:12.881Z,21.42
2016-10-25T13:50:23.459Z,21.41
2016-10-25T13:51:34.046Z,21.46
2016-10-25T13:52:44.724Z,21.5
2016-10-25T13:53:55.296Z,21.53
2016-10-25T13:55:05.877Z,21.69
2016-10-25T13:56:16.455Z,21.81
2016-10-25T13:57:27.042Z,21.79
2016-10-25T13:58:37.632Z,21.83
2016-10-25T13:59:48.218Z,21.94
2016-10-25T14:00:58.805Z,21.82
2016-10-25T14:02:10.095Z,21.69
2016-10-25T14:03:21.173Z,21.57
2016-10-25T14:04:31.840Z,21.54
2016-10-25T14:05:42.416Z,21.48
2016-10-25T14:06:52.995Z,21.48
2016-10-25T14:08:03.622Z,21.63
2016-10-25T14:09:14.202Z,21.76
2016-10-25T14:10:25.373Z,21.9
2016-10-25T14:11:35.951Z,22.1
2016-10-25T14:12:46.529Z,22.14
2016-10-25T14:13:57.115Z,22.35
2016-10-25T14:15:07.700Z,22.6
2016-10-25T14:16:18.292Z,22.5
2016-10-25T14:17:28.880Z,22.56
2016-10-25T14:18:39.472Z,22.54
2016-10-25T14:19:50.127Z,22.38
2016-10-25T14:21:00.737Z,22.38
2016-10-25T14:22:11.413Z,22.41
2016-10-25T14:23:22.003Z,22.56
2016-10-25T14:24:33.083Z,22.72
2016-10-25T14:25:44.165Z,22.74
2016-10-25T14:26:54.749Z,22.75
2016-10-25T14:28:05.350Z,22.78
2016-10-25T14:29:15.900Z,22.77
2016-10-25T14:30:26.432Z,22.65
2016-10-25T14:31:36.993Z,22.74
2016-10-25T14:32:48.034Z,22.77
2016-10-25T14:33:58.657Z,22.68
2016-10-25T14:35:09.164Z,22.68
2016-10-25T14:36:19.737Z,22.69
2016-10-25T14:37:30.240Z,22.78
2016-10-25T14:38:40.739Z,22.94
2016-10-25T14:39:51.314Z,22.92
2016-10-25T14:41:01.861Z,23.01
2016-10-25T14:42:12.440Z,22.99
2016-10-25T14:43:22.991Z,23.01
2016-10-25T14:44:34.074Z,23.11
2016-10-25T14:45:44.731Z,23.12
2016-10-25T14:46:55.724Z,23.07
2016-10-25T14:48:06.261Z,23.08
2016-10-25T14:49:16.799Z,22.92
2016-10-25T14:50:27.876Z,22.92
2016-10-25T14:51:38.892Z,22.87
2016-10-25T14:52:49.408Z,22.77
2016-10-25T14:53:59.992Z,22.83
2016-10-25T14:55:11.076Z,22.72
2016-10-25T14:56:21.607Z,22.72
2016-10-25T14:57:32.282Z,22.68
2016-10-25T14:58:42.820Z,22.71
2016-10-25T14:59:53.402Z,22.68
2016-10-25T15:01:03.939Z,22.62
2016-10-25T15:02:14.452Z,22.54
2016-10-25T15:03:25.091Z,22.56
2016-10-25T15:04:35.612Z,22.38
2016-10-25T15:05:46.165Z,22.38
2016-10-25T15:06:57.212Z,22.5
2016-10-25T15:08:07.754Z,22.43
2016-10-25T15:09:23.324Z,22.43
2016-10-25T15:10:33.860Z,22.22
2016-10-25T15:11:44.419Z,22.14
2016-10-25T15:12:54.944Z,22.16
2016-10-25T15:14:05.436Z,22.13
2016-10-25T15:15:16.133Z,22.16